Time;durP1;ratioP1;P1;durP2;ratioP2;P2;SDS_P1;SDS_P2;PMS_P1;PMS_P2;Temp;Humidity;BMP_temperature;BMP_pressure;BME280_temperature;BME280_humidity;BME280_pressure;Samples;Min_cycle;Max_cycle;Signal;HPM_P1;HPM_P2
2022/09/14 00:02:13;;;;;;;3.97;3.08;;;19.70;99.90;;;;;;5049817;28;20406;-74
2022/09/14 00:04:40;;;;;;;5.10;3.40;;;19.70;99.90;;;;;;5040442;28;20413;-74
2022/09/14 00:07:07;;;;;;;4.53;3.47;;;19.60;99.90;;;;;;5041320;28;20406;-74
2022/09/14 00:09:33;;;;;;;3.65;3.03;;;19.60;99.90;;;;;;5033199;28;20386;-74
2022/09/14 00:11:58;;;;;;;3.30;3.00;;;19.60;99.90;;;;;;5030604;28;20408;-74
2022/09/14 00:14:24;;;;;;;3.10;2.80;;;19.50;99.90;;;;;;5042025;28;20398;-74
2022/09/14 00:16:50;;;;;;;3.50;3.20;;;19.60;99.90;;;;;;5051256;28;20397;-74
2022/09/14 00:19:26;;;;;;;2.90;2.70;;;19.60;99.90;;;;;;5046831;28;20474;-74
2022/09/14 00:21:54;;;;;;;3.20;3.00;;;19.50;99.90;;;;;;5051192;28;20396;-74
2022/09/14 00:24:21;;;;;;;3.15;2.75;;;19.50;99.90;;;;;;5036534;28;20392;-74
2022/09/14 00:26:47;;;;;;;3.00;2.80;;;19.50;99.90;;;;;;5031152;28;20498;-74
2022/09/14 00:29:12;;;;;;;4.20;3.43;;;19.60;99.90;;;;;;5031061;28;20935;-74
2022/09/14 00:31:39;;;;;;;3.90;2.93;;;19.60;99.90;;;;;;5031316;28;20383;-74
2022/09/14 00:34:06;;;;;;;4.10;2.92;;;19.60;99.90;;;;;;5030622;28;20391;-74
2022/09/14 00:36:36;;;;;;;3.30;3.00;;;19.60;99.90;;;;;;5013232;28;20395;-74
2022/09/14 00:39:03;;;;;;;3.85;3.55;;;19.60;99.90;;;;;;5030760;28;20433;-74
2022/09/14 00:41:31;;;;;;;4.18;3.55;;;19.60;99.90;;;;;;5031056;28;20402;-74
2022/09/14 00:43:57;;;;;;;3.17;2.97;;;19.60;99.90;;;;;;5030646;28;20383;-74
2022/09/14 00:46:24;;;;;;;3.20;2.90;;;19.80;99.90;;;;;;5030873;28;20406;-74
2022/09/14 00:48:51;;;;;;;4.80;2.90;;;19.70;99.90;;;;;;5030461;28;20419;-74
2022/09/14 00:51:19;;;;;;;3.75;2.75;;;19.60;99.90;;;;;;5030751;28;20466;-74
2022/09/14 00:53:45;;;;;;;3.55;3.13;;;19.90;99.90;;;;;;5030392;28;20387;-74
2022/09/14 00:56:11;;;;;;;3.55;3.05;;;19.80;99.90;;;;;;5031321;28;20813;-74
2022/09/14 00:58:37;;;;;;;3.25;3.00;;;19.70;99.90;;;;;;5013192;28;20544;-74
2022/09/14 01:01:03;;;;;;;3.70;3.40;;;19.60;99.90;;;;;;5031278;28;20391;-74
2022/09/14 01:03:29;;;;;;;4.57;3.00;;;19.60;99.90;;;;;;5013024;28;20422;-74
2022/09/14 01:06:06;;;;;;;3.47;3.17;;;19.70;99.90;;;;;;5030701;28;20897;-74
2022/09/14 01:08:53;;;;;;;3.40;3.10;;;19.60;99.90;;;;;;5030527;28;20387;-74
2022/09/14 01:11:29;;;;;;;2.80;2.60;;;19.60;99.90;;;;;;5030486;28;20387;-74
2022/09/14 01:14:11;;;;;;;2.97;2.78;;;19.60;99.90;;;;;;5011688;28;20395;-74
2022/09/14 01:17:12;;;;;;;3.20;2.90;;;19.60;99.90;;;;;;5030468;28;20402;-74
2022/09/14 01:19:46;;;;;;;3.00;2.80;;;19.50;99.90;;;;;;4987959;28;20453;-74
2022/09/14 01:22:19;;;;;;;3.60;2.97;;;19.50;99.90;;;;;;5030392;28;20391;-75
2022/09/14 01:24:53;;;;;;;3.53;3.22;;;19.50;99.90;;;;;;5029812;28;20482;-74
2022/09/14 01:27:34;;;;;;;3.10;2.90;;;19.60;99.90;;;;;;5030184;28;20414;-74
2022/09/14 01:30:21;;;;;;;3.00;2.80;;;19.60;99.90;;;;;;5030201;28;20773;-74
2022/09/14 01:33:13;;;;;;;3.45;3.15;;;19.50;99.90;;;;;;5029793;28;20379;-74
2022/09/14 01:35:49;;;;;;;3.83;3.53;;;19.50;99.90;;;;;;5025330;28;20488;-74
2022/09/14 01:38:21;;;;;;;4.07;3.17;;;19.50;99.90;;;;;;5012276;28;20445;-74
2022/09/14 01:40:49;;;;;;;3.70;3.40;;;19.50;99.90;;;;;;5029921;28;20513;-74
2022/09/14 01:43:23;;;;;;;3.47;3.00;;;19.50;99.90;;;;;;5029664;28;20444;-74
2022/09/14 01:45:52;;;;;;;4.95;3.30;;;19.40;99.90;;;;;;5029750;28;20379;-74
2022/09/14 01:48:25;;;;;;;3.75;3.45;;;19.60;99.90;;;;;;5029713;28;20404;-74
2022/09/14 01:50:55;;;;;;;3.83;3.30;;;19.60;99.90;;;;;;5029813;28;20462;-74
2022/09/14 01:53:36;;;;;;;3.78;3.47;;;19.50;99.90;;;;;;5029593;28;20375;-74
2022/09/14 01:56:23;;;;;;;4.00;3.10;;;19.60;99.90;;;;;;5029985;28;20394;-74
2022/09/14 01:59:14;;;;;;;3.35;3.05;;;19.50;99.90;;;;;;5029768;28;20395;-74
2022/09/14 02:01:49;;;;;;;3.53;3.20;;;19.50;99.90;;;;;;5029621;28;20391;-74
2022/09/14 02:04:20;;;;;;;3.70;3.40;;;19.50;99.90;;;;;;5029515;28;20383;-74
2022/09/14 02:06:47;;;;;;;3.55;3.25;;;19.50;99.90;;;;;;5029561;28;20410;-74
2022/09/14 02:09:18;;;;;;;3.50;3.20;;;19.50;99.90;;;;;;5029649;28;20470;-74
2022/09/14 02:11:45;;;;;;;3.47;3.17;;;19.50;99.90;;;;;;5029703;28;21009;-74
2022/09/14 02:14:11;;;;;;;3.30;3.00;;;19.60;99.90;;;;;;5028911;28;20818;-74
2022/09/14 02:16:36;;;;;;;3.22;2.92;;;19.60;99.90;;;;;;5029480;28;20399;-74
2022/09/14 02:19:02;;;;;;;5.03;3.30;;;19.50;99.90;;;;;;5011738;28;20399;-74
2022/09/14 02:21:30;;;;;;;3.70;3.40;;;19.50;99.90;;;;;;5029539;28;20441;-74
2022/09/14 02:23:58;;;;;;;3.38;3.08;;;19.40;99.90;;;;;;5039817;28;20424;-74
2022/09/14 02:26:24;;;;;;;3.85;3.50;;;19.50;99.90;;;;;;5049050;28;20404;-74
2022/09/14 02:28:54;;;;;;;3.07;2.87;;;19.50;99.90;;;;;;5049335;28;20409;-74
2022/09/14 02:31:44;;;;;;;3.30;2.90;;;19.50;99.90;;;;;;5031436;28;20389;-74
2022/09/14 02:34:26;;;;;;;3.57;3.20;;;19.50;99.90;;;;;;5031188;28;20393;-74
2022/09/14 02:36:57;;;;;;;3.35;3.03;;;19.50;99.90;;;;;;5049171;28;20400;-74
2022/09/14 02:39:36;;;;;;;3.40;3.10;;;19.50;99.90;;;;;;5049130;28;20388;-74
2022/09/14 02:42:10;;;;;;;3.75;3.45;;;19.50;99.90;;;;;;5049268;28;20901;-74
2022/09/14 02:44:43;;;;;;;4.60;2.95;;;19.50;99.90;;;;;;5049027;28;20404;-74
2022/09/14 02:47:21;;;;;;;3.20;3.00;;;19.50;99.90;;;;;;5052322;28;20970;-74
2022/09/14 02:49:54;;;;;;;3.60;3.30;;;19.60;99.90;;;;;;5052674;28;21054;-74
2022/09/14 02:52:32;;;;;;;2.88;2.67;;;19.60;99.90;;;;;;5035008;28;20480;-74
2022/09/14 02:55:06;;;;;;;3.10;2.80;;;20.10;99.90;;;;;;5052886;28;20451;-74
2022/09/14 02:57:32;;;;;;;3.03;2.80;;;20.50;99.90;;;;;;5052769;28;20829;-74
2022/09/14 02:59:58;;;;;;;3.30;3.00;;;21.20;99.90;;;;;;5052735;28;20515;-74
2022/09/14 03:02:23;;;;;;;4.30;2.50;;;21.80;99.90;;;;;;5052689;28;20882;-74
2022/09/14 03:04:49;;;;;;;3.50;2.50;;;22.20;99.90;;;;;;5052640;28;20475;-74
2022/09/14 03:07:14;;;;;;;3.00;2.70;;;22.40;99.90;;;;;;5052897;28;20427;-74
2022/09/14 03:09:40;;;;;;;2.80;2.60;;;22.40;99.90;;;;;;5034776;28;20377;-74
2022/09/14 03:12:05;;;;;;;4.05;2.88;;;22.30;99.90;;;;;;5052956;28;20374;-78
2022/09/14 03:14:31;;;;;;;5.30;3.10;;;21.50;99.90;;;;;;5057192;28;20902;-77
2022/09/14 03:16:56;;;;;;;4.47;3.40;;;20.20;99.90;;;;;;5036153;28;20394;-77
2022/09/14 03:19:22;;;;;;;7.78;3.70;;;20.10;99.90;;;;;;5053370;28;20389;-78
2022/09/14 03:21:47;;;;;;;7.03;4.00;;;19.90;99.90;;;;;;5053942;28;20377;-78
2022/09/14 03:24:13;;;;;;;4.72;4.32;;;19.70;99.90;;;;;;5039483;28;20427;-75
2022/09/14 03:26:38;;;;;;;4.80;4.30;;;19.70;99.90;;;;;;5015331;28;20395;-75
2022/09/14 03:29:05;;;;;;;4.95;4.50;;;19.60;99.90;;;;;;5032467;28;20726;-76
2022/09/14 03:31:32;;;;;;;6.32;5.10;;;19.60;99.90;;;;;;5032632;28;20406;-75
2022/09/14 03:33:59;;;;;;;4.57;4.18;;;19.50;99.90;;;;;;5032600;28;20387;-76
2022/09/14 03:36:28;;;;;;;5.20;4.00;;;19.50;99.90;;;;;;5032577;28;20478;-77
2022/09/14 03:38:55;;;;;;;4.82;3.85;;;19.60;99.90;;;;;;5032614;28;20387;-75
2022/09/14 03:41:22;;;;;;;5.40;3.90;;;19.70;99.90;;;;;;5015102;28;20808;-77
2022/09/14 03:43:48;;;;;;;3.80;3.58;;;19.70;99.90;;;;;;5032399;28;20446;-77
2022/09/14 03:46:16;;;;;;;6.33;4.13;;;19.80;99.90;;;;;;5032600;28;20916;-78
2022/09/14 03:48:43;;;;;;;6.10;4.05;;;19.60;99.90;;;;;;5057232;23;20436;-73
2022/09/14 03:51:10;;;;;;;4.38;3.90;;;19.60;99.90;;;;;;5092588;28;20371;-73
2022/09/14 03:53:36;;;;;;;4.10;3.53;;;19.50;99.90;;;;;;5084007;28;20374;-73
2022/09/14 03:56:07;;;;;;;4.57;3.70;;;19.50;99.90;;;;;;5092744;28;20435;-73
2022/09/14 03:58:32;;;;;;;4.47;4.07;;;19.60;99.90;;;;;;5083999;28;21092;-73
2022/09/14 04:01:06;;;;;;;4.80;3.60;;;19.50;99.90;;;;;;5092571;28;20473;-73
2022/09/14 04:03:32;;;;;;;5.43;4.30;;;19.60;99.90;;;;;;5091994;28;20386;-73
2022/09/14 04:05:58;;;;;;;4.20;3.90;;;19.70;99.90;;;;;;5086631;28;20407;-72
2022/09/14 04:08:23;;;;;;;4.40;4.00;;;19.50;99.90;;;;;;5082628;28;20399;-72
2022/09/14 04:10:49;;;;;;;4.50;4.10;;;19.60;99.90;;;;;;5092096;28;20379;-73
2022/09/14 04:13:14;;;;;;;4.32;3.60;;;19.70;99.90;;;;;;5090313;28;20382;-73
2022/09/14 04:15:40;;;;;;;3.63;3.33;;;19.80;99.90;;;;;;5092285;28;20390;-73
2022/09/14 04:18:05;;;;;;;3.90;3.50;;;19.90;99.90;;;;;;5091922;28;20480;-73
2022/09/14 04:20:31;;;;;;;3.60;3.30;;;20.00;99.90;;;;;;5092103;28;20912;-73
2022/09/14 04:22:57;;;;;;;3.10;2.80;;;20.00;99.90;;;;;;5088834;28;20366;-72
2022/09/14 04:25:22;;;;;;;3.38;3.00;;;20.10;99.90;;;;;;5071830;28;20388;-73
2022/09/14 04:27:49;;;;;;;3.60;3.30;;;20.10;99.90;;;;;;5071587;28;20403;-73
2022/09/14 04:30:14;;;;;;;3.88;3.50;;;20.10;99.90;;;;;;5071363;28;20858;-68
2022/09/14 04:32:40;;;;;;;3.83;3.30;;;19.90;99.90;;;;;;5057455;28;20504;-70
2022/09/14 04:35:06;;;;;;;4.20;3.50;;;20.00;99.90;;;;;;5066126;28;20375;-71
2022/09/14 04:37:32;;;;;;;4.15;3.85;;;20.10;99.90;;;;;;5069394;28;20388;-71
2022/09/14 04:39:57;;;;;;;5.00;3.60;;;19.80;99.90;;;;;;5069202;28;20384;-71
2022/09/14 04:42:23;;;;;;;4.70;3.60;;;19.70;99.90;;;;;;5066360;28;20456;-71
2022/09/14 04:44:48;;;;;;;4.00;3.70;;;19.60;99.90;;;;;;5066001;28;20822;-70
2022/09/14 04:47:14;;;;;;;4.07;3.77;;;19.50;99.90;;;;;;5059219;28;20440;-70
2022/09/14 04:49:40;;;;;;;4.85;4.38;;;19.40;99.90;;;;;;5059778;28;20407;-71
2022/09/14 04:52:05;;;;;;;4.20;3.80;;;19.40;99.90;;;;;;5076140;28;20393;-70
2022/09/14 04:54:31;;;;;;;4.40;4.10;;;19.30;99.90;;;;;;5072581;28;20389;-71
2022/09/14 04:56:56;;;;;;;4.65;4.28;;;19.30;99.90;;;;;;5051053;28;20385;-70
2022/09/14 04:59:22;;;;;;;5.10;4.60;;;19.20;99.90;;;;;;5069501;28;20417;-71
2022/09/14 05:01:48;;;;;;;4.90;4.40;;;19.10;99.90;;;;;;5078092;28;20467;-70
2022/09/14 05:04:14;;;;;;;4.80;4.40;;;19.00;99.90;;;;;;5061938;28;20405;-70
2022/09/14 05:06:41;;;;;;;5.23;4.73;;;19.10;99.90;;;;;;5065554;28;20410;-69
2022/09/14 05:09:12;;;;;;;4.90;4.50;;;19.10;99.90;;;;;;5062143;28;20408;-69
2022/09/14 05:11:38;;;;;;;5.22;4.70;;;19.10;99.90;;;;;;5064387;28;20401;-70
2022/09/14 05:14:04;;;;;;;5.10;4.20;;;19.00;99.90;;;;;;5071563;28;20414;-70
2022/09/14 05:16:32;;;;;;;4.90;4.50;;;19.10;99.90;;;;;;5064468;28;20396;-70
2022/09/14 05:19:01;;;;;;;4.63;4.20;;;19.10;99.90;;;;;;5077461;28;20404;-69
2022/09/14 05:21:28;;;;;;;4.43;4.03;;;19.10;99.90;;;;;;5050808;28;20385;-70
2022/09/14 05:23:58;;;;;;;4.60;4.20;;;19.10;99.90;;;;;;5057020;28;20453;-70
2022/09/14 05:26:26;;;;;;;5.47;4.97;;;19.10;99.90;;;;;;5051046;28;20486;-70
2022/09/14 05:28:53;;;;;;;4.10;3.80;;;19.20;99.90;;;;;;5050862;28;20397;-69
2022/09/14 05:31:20;;;;;;;3.60;3.30;;;19.20;99.90;;;;;;5057756;28;20813;-70
2022/09/14 05:33:46;;;;;;;5.80;3.83;;;20.10;99.90;;;;;;5063958;28;20453;-70
2022/09/14 05:36:12;;;;;;;5.90;3.43;;;20.00;99.90;;;;;;5070903;28;20413;-69
2022/09/14 05:38:38;;;;;;;3.17;2.90;;;19.80;99.90;;;;;;5070243;28;20387;-70
2022/09/14 05:41:06;;;;;;;3.00;2.80;;;20.00;99.90;;;;;;5069985;28;20392;-69
2022/09/14 05:43:32;;;;;;;3.20;2.90;;;20.10;99.90;;;;;;5069273;28;20463;-70
2022/09/14 05:46:03;;;;;;;3.40;3.10;;;20.10;99.90;;;;;;5070294;28;20431;-70
2022/09/14 05:48:36;;;;;;;3.28;2.97;;;20.10;99.90;;;;;;5069876;28;20865;-70
2022/09/14 05:51:06;;;;;;;3.80;3.40;;;20.00;99.90;;;;;;5070172;28;20750;-70
2022/09/14 05:53:33;;;;;;;3.10;2.90;;;19.90;99.90;;;;;;5064060;28;20391;-70
2022/09/14 05:56:11;;;;;;;3.25;2.95;;;19.90;99.90;;;;;;5078172;28;20378;-71
2022/09/14 05:58:37;;;;;;;2.93;2.63;;;20.10;99.90;;;;;;5061786;28;20459;-70
2022/09/14 06:01:12;;;;;;;4.20;3.13;;;20.30;99.90;;;;;;5055645;28;20412;-70
2022/09/14 06:03:38;;;;;;;4.28;3.13;;;20.20;99.90;;;;;;5054073;28;20406;-71
2022/09/14 06:06:05;;;;;;;3.60;3.30;;;20.00;99.90;;;;;;5056419;28;20811;-71
2022/09/14 06:08:31;;;;;;;3.85;3.50;;;20.00;99.90;;;;;;5065209;28;20410;-70
2022/09/14 06:11:21;;;;;;;4.93;3.92;;;19.90;99.90;;;;;;5068705;28;20390;-70
2022/09/14 06:13:47;;;;;;;5.20;3.60;;;19.80;99.90;;;;;;5074606;28;20397;-70
2022/09/14 06:16:15;;;;;;;5.22;3.47;;;19.80;99.90;;;;;;5063344;28;20499;-70
2022/09/14 06:18:42;;;;;;;3.60;2.90;;;19.80;99.90;;;;;;5083393;28;20404;-70
2022/09/14 06:21:09;;;;;;;5.15;3.22;;;20.00;99.90;;;;;;5063943;28;20432;-71
2022/09/14 06:23:35;;;;;;;3.13;2.80;;;20.10;99.90;;;;;;5067931;28;20408;-71
2022/09/14 06:26:03;;;;;;;3.30;3.00;;;20.30;99.90;;;;;;5074984;28;20410;-71
2022/09/14 06:28:29;;;;;;;3.00;2.80;;;20.20;99.90;;;;;;5081069;28;20396;-72
2022/09/14 06:30:55;;;;;;;3.42;2.90;;;20.30;99.90;;;;;;5074088;28;20437;-71
2022/09/14 06:33:21;;;;;;;3.33;2.83;;;20.20;99.90;;;;;;5066639;28;20396;-70
2022/09/14 06:35:58;;;;;;;3.97;2.87;;;20.30;99.90;;;;;;5069073;28;20485;-71
2022/09/14 06:38:24;;;;;;;2.90;2.70;;;20.40;99.90;;;;;;5067827;28;20419;-70
2022/09/14 06:40:58;;;;;;;3.47;2.60;;;20.50;99.90;;;;;;5074349;28;20895;-71
2022/09/14 06:43:28;;;;;;;3.20;2.40;;;20.90;99.90;;;;;;5081093;28;20397;-69
2022/09/14 06:45:59;;;;;;;2.70;2.38;;;21.40;99.90;;;;;;5068190;28;20857;-70
2022/09/14 06:48:30;;;;;;;2.88;2.28;;;21.60;99.90;;;;;;5070079;28;20405;-70
2022/09/14 06:50:56;;;;;;;3.33;2.63;;;21.70;99.90;;;;;;5058658;28;20597;-69
2022/09/14 06:53:22;;;;;;;3.60;2.00;;;21.70;99.90;;;;;;5053141;28;20457;-69
2022/09/14 06:55:47;;;;;;;2.92;2.30;;;21.80;99.90;;;;;;5073245;28;20470;-70
2022/09/14 06:58:13;;;;;;;3.80;2.30;;;21.80;99.90;;;;;;5064494;28;20480;-70
2022/09/14 07:00:39;;;;;;;2.90;2.50;;;21.90;99.90;;;;;;5057419;28;20403;-70
2022/09/14 07:03:05;;;;;;;4.00;2.50;;;22.00;99.90;;;;;;5062090;28;20408;-71
2022/09/14 07:05:31;;;;;;;3.20;2.40;;;21.90;99.90;;;;;;5072772;28;20383;-69
2022/09/14 07:07:57;;;;;;;4.30;2.30;;;22.00;99.90;;;;;;5057359;28;20411;-69
2022/09/14 07:10:26;;;;;;;3.63;2.80;;;21.90;99.90;;;;;;5064951;28;20501;-69
2022/09/14 07:12:57;;;;;;;3.85;2.50;;;21.80;99.90;;;;;;5064005;28;20460;-70
2022/09/14 07:15:23;;;;;;;2.85;2.30;;;21.70;99.90;;;;;;5073033;28;20380;-70
2022/09/14 07:17:48;;;;;;;2.97;2.55;;;21.70;99.90;;;;;;5060311;28;20410;-69
2022/09/14 07:20:16;;;;;;;3.20;2.30;;;21.80;99.90;;;;;;5054838;28;20447;-70
2022/09/14 07:22:42;;;;;;;3.70;2.40;;;22.00;99.90;;;;;;5054852;28;20443;-70
2022/09/14 07:25:08;;;;;;;2.60;2.30;;;22.00;99.90;;;;;;5056082;28;20443;-69
2022/09/14 07:27:34;;;;;;;4.10;2.70;;;22.00;99.90;;;;;;5059441;28;20413;-70
2022/09/14 07:30:00;;;;;;;2.38;2.13;;;22.10;99.90;;;;;;5066792;28;20380;-70
2022/09/14 07:32:26;;;;;;;3.73;2.40;;;22.10;99.90;;;;;;5064576;28;20410;-69
2022/09/14 07:34:51;;;;;;;2.67;2.47;;;22.20;99.90;;;;;;5063889;28;20376;-70
2022/09/14 07:37:17;;;;;;;4.53;2.20;;;22.30;99.90;;;;;;5072609;28;21044;-69
2022/09/14 07:39:42;;;;;;;3.15;2.42;;;22.50;99.90;;;;;;5055395;28;20785;-69
2022/09/14 07:42:08;;;;;;;2.50;2.27;;;22.50;99.90;;;;;;5056715;28;20389;-70
2022/09/14 07:44:33;;;;;;;3.00;2.00;;;22.70;99.90;;;;;;5051621;28;20378;-70
2022/09/14 07:46:59;;;;;;;3.50;2.57;;;22.80;99.90;;;;;;5051522;28;20458;-71
2022/09/14 07:49:25;;;;;;;2.53;2.30;;;22.80;99.90;;;;;;5051639;28;20389;-72
2022/09/14 07:51:51;;;;;;;3.20;2.30;;;22.90;99.90;;;;;;5052250;28;20889;-71
2022/09/14 07:54:18;;;;;;;4.05;2.25;;;23.00;99.90;;;;;;5051582;28;20529;-71
2022/09/14 07:56:44;;;;;;;3.38;2.00;;;23.20;99.90;;;;;;5051858;28;20583;-72
2022/09/14 07:59:11;;;;;;;2.42;2.15;;;23.10;99.90;;;;;;5055159;28;20387;-71
2022/09/14 08:01:37;;;;;;;2.47;2.20;;;23.10;99.90;;;;;;5070391;28;20426;-71
2022/09/14 08:04:04;;;;;;;3.25;2.00;;;23.00;99.90;;;;;;5056989;28;20417;-71
2022/09/14 08:06:30;;;;;;;3.70;2.40;;;23.00;99.90;;;;;;5079958;28;20415;-71
2022/09/14 08:08:56;;;;;;;13.57;10.00;;;23.10;99.90;;;;;;5075370;28;20384;-72
2022/09/14 08:11:26;;;;;;;3.78;2.00;;;23.10;99.90;;;;;;5059964;28;20775;-72
2022/09/14 08:13:57;;;;;;;3.50;2.30;;;23.20;99.90;;;;;;5077357;28;20553;-71
2022/09/14 08:16:24;;;;;;;3.45;2.20;;;23.20;99.90;;;;;;5076618;28;20808;-71
2022/09/14 08:18:55;;;;;;;2.42;2.03;;;23.10;99.90;;;;;;5080187;28;20395;-72
2022/09/14 08:21:21;;;;;;;3.92;2.30;;;23.20;99.90;;;;;;5090614;28;20390;-72
2022/09/14 08:23:47;;;;;;;3.80;2.17;;;23.30;99.90;;;;;;5081691;28;20486;-72
2022/09/14 08:26:20;;;;;;;5.95;2.30;;;23.20;99.90;;;;;;5070990;28;20429;-71
2022/09/14 08:28:47;;;;;;;3.53;2.20;;;23.30;99.90;;;;;;5071348;28;20431;-71
2022/09/14 08:31:34;;;;;;;2.60;2.25;;;23.30;99.90;;;;;;5055822;28;20412;-73
2022/09/14 08:34:01;;;;;;;4.47;2.20;;;23.30;99.90;;;;;;5071655;28;20382;-72
2022/09/14 08:36:32;;;;;;;4.63;2.40;;;23.40;99.90;;;;;;5060576;28;20389;-71
2022/09/14 08:38:59;;;;;;;5.90;2.10;;;23.40;99.90;;;;;;5075273;28;20394;-71
2022/09/14 08:41:29;;;;;;;3.80;2.53;;;23.30;99.90;;;;;;5075700;28;20382;-72
2022/09/14 08:44:21;;;;;;;4.88;2.50;;;23.30;99.90;;;;;;5082543;28;20747;-71
2022/09/14 08:47:03;;;;;;;4.03;2.50;;;23.30;99.90;;;;;;5067883;28;20474;-70
2022/09/14 08:49:46;;;;;;;8.13;7.32;;;23.30;99.90;;;;;;5057130;28;20418;-70
2022/09/14 08:52:35;;;;;;;6.07;5.03;;;23.40;99.90;;;;;;5061628;28;21270;-70
2022/09/14 08:55:16;;;;;;;3.75;2.33;;;23.40;99.90;;;;;;5076559;28;21035;-74
2022/09/14 08:57:52;;;;;;;3.63;2.28;;;23.50;99.90;;;;;;5076717;28;20387;-72
2022/09/14 09:00:22;;;;;;;2.47;2.30;;;23.60;99.90;;;;;;5073268;28;20404;-71
2022/09/14 09:02:59;;;;;;;2.70;2.30;;;23.60;99.90;;;;;;5083250;28;20386;-71
2022/09/14 09:05:34;;;;;;;2.38;2.08;;;23.80;99.90;;;;;;5052545;28;20769;-72
2022/09/14 09:08:22;;;;;;;4.07;2.30;;;23.90;99.90;;;;;;5061287;28;20400;-71
2022/09/14 09:10:50;;;;;;;2.40;2.10;;;24.00;99.90;;;;;;5065156;28;20879;-72
2022/09/14 09:13:19;;;;;;;2.50;2.20;;;24.00;99.90;;;;;;5052770;28;20744;-71
2022/09/14 09:15:48;;;;;;;3.13;2.25;;;24.00;99.90;;;;;;5061280;28;20381;-71
2022/09/14 09:18:22;;;;;;;4.03;2.88;;;24.10;99.90;;;;;;5057443;28;20432;-71
2022/09/14 09:20:58;;;;;;;3.65;2.22;;;24.30;99.90;;;;;;5051730;28;20741;-72
2022/09/14 09:23:27;;;;;;;3.88;2.80;;;24.20;99.90;;;;;;5057585;28;20398;-71
2022/09/14 09:25:53;;;;;;;2.50;2.28;;;24.20;99.90;;;;;;5055850;28;20949;-71
2022/09/14 09:28:20;;;;;;;3.50;2.47;;;24.30;99.90;;;;;;5055765;28;20472;-72
2022/09/14 09:30:46;;;;;;;2.70;2.42;;;24.30;99.90;;;;;;5058368;28;20431;-71
2022/09/14 09:33:19;;;;;;;4.90;2.53;;;24.20;99.90;;;;;;5059001;28;20406;-71
2022/09/14 09:35:44;;;;;;;3.25;2.40;;;24.10;99.90;;;;;;5052209;28;20385;-71
2022/09/14 09:38:15;;;;;;;2.93;2.27;;;24.10;99.90;;;;;;5051098;28;20960;-71
2022/09/14 09:40:48;;;;;;;3.40;2.43;;;24.30;99.90;;;;;;5063316;28;20393;-71
2022/09/14 09:43:17;;;;;;;4.78;2.60;;;24.20;99.90;;;;;;5076903;28;20396;-70
2022/09/14 09:45:59;;;;;;;2.70;2.35;;;24.40;99.90;;;;;;5053499;28;20464;-71
2022/09/14 09:48:36;;;;;;;5.13;2.40;;;24.40;99.90;;;;;;5051950;28;20810;-72
2022/09/14 09:51:15;;;;;;;6.32;3.05;;;24.40;99.90;;;;;;5070038;22;20492;-73
2022/09/14 09:53:57;;;;;;;3.22;2.40;;;24.40;99.90;;;;;;5058557;28;20481;-74
2022/09/14 09:56:26;;;;;;;3.10;1.90;;;24.50;99.90;;;;;;5062823;28;20386;-75
2022/09/14 09:58:52;;;;;;;3.33;2.30;;;24.50;99.90;;;;;;5065582;28;20806;-75
2022/09/14 10:01:25;;;;;;;4.80;2.42;;;24.50;99.90;;;;;;5043047;28;20397;-74
2022/09/14 10:04:02;;;;;;;3.50;2.50;;;24.50;99.90;;;;;;5033527;28;20423;-75
2022/09/14 10:06:27;;;;;;;2.97;2.50;;;24.40;99.90;;;;;;5049312;28;20416;-75
2022/09/14 10:08:56;;;;;;;4.07;2.20;;;24.30;99.90;;;;;;5043882;28;20538;-75
2022/09/14 10:11:35;;;;;;;2.60;2.30;;;24.20;99.90;;;;;;5038976;28;20391;-74
2022/09/14 10:14:01;;;;;;;2.70;2.50;;;24.20;99.90;;;;;;5045199;28;20438;-74
2022/09/14 10:16:36;;;;;;;3.40;2.45;;;24.10;99.90;;;;;;5046265;28;20829;-75
2022/09/14 10:19:03;;;;;;;3.85;2.58;;;23.90;99.90;;;;;;5026071;28;21128;-75
2022/09/14 10:21:30;;;;;;;4.73;2.50;;;23.70;99.90;;;;;;5019431;28;20413;-73
2022/09/14 10:24:25;;;;;;;4.65;2.78;;;23.50;99.90;;;;;;5043510;28;20751;-74
2022/09/14 10:26:51;;;;;;;4.90;3.60;;;23.40;99.90;;;;;;5033723;28;20453;-77
2022/09/14 10:29:29;;;;;;;6.40;4.13;;;21.60;99.90;;;;;;5028809;28;20401;-77
2022/09/14 10:32:04;;;;;;;4.78;4.15;;;20.80;99.90;;;;;;5039700;28;20373;-77
2022/09/14 10:34:29;;;;;;;4.78;4.25;;;20.60;99.90;;;;;;5054566;28;20400;-77
2022/09/14 10:37:11;;;;;;;4.22;3.83;;;20.60;99.90;;;;;;5037778;28;20620;-78
2022/09/14 10:39:56;;;;;;;6.63;4.60;;;20.60;99.90;;;;;;5057128;28;20472;-77
2022/09/14 10:42:37;;;;;;;4.72;4.22;;;20.70;99.90;;;;;;5048819;28;20879;-77
2022/09/14 10:45:23;;;;;;;3.92;3.42;;;20.70;99.90;;;;;;5040662;28;20836;-77
2022/09/14 10:48:25;;;;;;;4.93;3.57;;;20.60;99.90;;;;;;5049711;28;20492;-77
2022/09/14 10:51:04;;;;;;;7.47;4.43;;;20.70;99.90;;;;;;5033466;28;20759;-77
2022/09/14 10:53:56;;;;;;;5.22;4.72;;;20.80;99.90;;;;;;5035299;28;20385;-77
2022/09/14 10:56:24;;;;;;;4.78;4.28;;;21.00;99.90;;;;;;5052621;28;20382;-77
2022/09/14 10:59:21;;;;;;;4.25;3.85;;;21.00;99.90;;;;;;5052181;28;20389;-77
2022/09/14 11:02:08;;;;;;;5.10;3.80;;;21.10;99.90;;;;;;5051004;28;20385;-77
2022/09/14 11:04:43;;;;;;;5.70;4.10;;;21.20;99.90;;;;;;5033063;28;20397;-77
2022/09/14 11:07:23;;;;;;;6.32;4.28;;;21.20;99.90;;;;;;5051135;28;20815;-77
2022/09/14 11:09:54;;;;;;;3.70;3.40;;;21.10;99.90;;;;;;5053532;28;20377;-77
2022/09/14 11:12:22;;;;;;;4.97;3.95;;;21.10;99.90;;;;;;5032967;28;20997;-77
2022/09/14 11:15:13;;;;;;;4.32;3.90;;;21.10;99.90;;;;;;5047836;28;20894;-75
2022/09/14 11:17:53;;;;;;;4.40;3.88;;;21.00;99.90;;;;;;5029159;28;20401;-75
2022/09/14 11:20:42;;;;;;;3.83;3.33;;;21.00;99.90;;;;;;5033584;28;20395;-76
2022/09/14 11:23:26;;;;;;;4.00;3.20;;;21.00;99.90;;;;;;5029494;28;20406;-77
2022/09/14 11:26:04;;;;;;;5.45;3.60;;;21.00;99.90;;;;;;5027982;28;20391;-77
2022/09/14 11:28:37;;;;;;;5.40;3.20;;;20.90;99.90;;;;;;5037515;28;20389;-76
2022/09/14 11:31:10;;;;;;;5.97;4.20;;;20.90;99.90;;;;;;5017307;28;20458;-77
2022/09/14 11:34:02;;;;;;;5.90;4.10;;;20.90;99.90;;;;;;5017548;28;20402;-76
2022/09/14 11:36:38;;;;;;;5.72;3.80;;;20.90;99.90;;;;;;5053904;28;20909;-76
2022/09/14 11:39:05;;;;;;;6.37;4.20;;;21.00;99.90;;;;;;5035318;28;20393;-76
2022/09/14 11:42:08;;;;;;;6.88;5.32;;;21.00;99.90;;;;;;5036607;28;20773;-76
2022/09/14 11:44:39;;;;;;;5.90;4.43;;;21.00;99.90;;;;;;5043040;28;20412;-76
2022/09/14 11:47:11;;;;;;;4.72;4.30;;;21.10;99.90;;;;;;5054425;28;20508;-76
2022/09/14 11:49:59;;;;;;;4.68;4.05;;;21.10;99.90;;;;;;5037424;28;20454;-76
2022/09/14 11:52:27;;;;;;;5.30;4.20;;;21.10;99.90;;;;;;5042064;28;20465;-77
2022/09/14 11:54:53;;;;;;;5.35;4.07;;;21.00;99.90;;;;;;5046905;28;20395;-78
2022/09/14 11:57:30;;;;;;;4.15;3.80;;;21.00;99.90;;;;;;5054057;28;20385;-78
2022/09/14 11:59:59;;;;;;;5.50;3.80;;;20.90;99.90;;;;;;5068137;28;20390;-77
2022/09/14 12:02:30;;;;;;;4.25;3.70;;;20.80;99.90;;;;;;5061145;28;20412;-76
2022/09/14 12:05:09;;;;;;;4.13;3.83;;;20.90;99.90;;;;;;5021731;28;20411;-76
2022/09/14 12:07:41;;;;;;;4.70;4.30;;;20.90;99.90;;;;;;5033578;28;20413;-75
2022/09/14 12:10:17;;;;;;;5.00;4.35;;;20.90;99.90;;;;;;5035657;28;20467;-75
2022/09/14 12:12:51;;;;;;;4.53;4.13;;;21.10;99.90;;;;;;5026773;28;21028;-75
2022/09/14 12:15:27;;;;;;;4.90;3.80;;;21.20;99.90;;;;;;5032838;28;20953;-75
2022/09/14 12:18:05;;;;;;;4.72;4.22;;;21.20;99.90;;;;;;5014122;28;20399;-75
2022/09/14 12:20:39;;;;;;;6.00;4.20;;;21.20;99.90;;;;;;5031504;28;20398;-75
2022/09/14 12:23:24;;;;;;;5.70;5.20;;;21.30;99.90;;;;;;5035372;28;20951;-75
2022/09/14 12:26:04;;;;;;;4.40;3.90;;;21.40;99.90;;;;;;5028720;28;20772;-74
2022/09/14 12:28:38;;;;;;;4.72;3.85;;;21.30;99.90;;;;;;5051679;28;20490;-74
2022/09/14 12:31:03;;;;;;;5.60;3.65;;;21.30;99.90;;;;;;5050953;28;20445;-74
2022/09/14 12:33:34;;;;;;;5.25;3.60;;;21.40;99.90;;;;;;5050956;28;20468;-74
2022/09/14 12:36:01;;;;;;;5.32;3.55;;;21.40;99.90;;;;;;5051485;28;20397;-74
2022/09/14 12:38:29;;;;;;;5.00;4.10;;;21.40;99.90;;;;;;5034056;28;20879;-74
2022/09/14 12:40:56;;;;;;;4.93;3.75;;;21.30;99.90;;;;;;5051195;28;20378;-75
2022/09/14 12:43:36;;;;;;;3.65;3.30;;;21.30;99.90;;;;;;5051076;28;20465;-75
2022/09/14 12:46:06;;;;;;;4.00;3.35;;;21.20;99.90;;;;;;5041378;28;20537;-75
2022/09/14 12:49:03;;;;;;;4.10;3.55;;;21.10;99.90;;;;;;5031539;28;20870;-75
2022/09/14 12:54:06;;;;;;;5.43;3.70;;;21.00;99.90;;;;;;5034696;28;20753;-74
2022/09/14 12:57:02;;;;;;;5.45;4.40;;;21.00;99.90;;;;;;5040601;28;20416;-74
2022/09/14 12:59:40;;;;;;;6.60;4.20;;;21.00;99.90;;;;;;5030965;28;20892;-74
2022/09/14 13:02:29;;;;;;;4.20;3.80;;;21.00;99.90;;;;;;5050936;28;20894;-74
2022/09/14 13:04:57;;;;;;;5.07;4.43;;;20.90;99.90;;;;;;5050890;28;20388;-74
2022/09/14 13:07:28;;;;;;;5.68;3.70;;;20.90;99.90;;;;;;5032886;28;20957;-74
2022/09/14 13:09:56;;;;;;;4.57;3.80;;;20.90;99.90;;;;;;5050790;28;20859;-75
2022/09/14 13:12:40;;;;;;;3.70;2.92;;;20.80;99.90;;;;;;5050493;28;20798;-75